Time;durP1;ratioP1;P1;durP2;ratioP2;P2;SDS_P1;SDS_P2;PMS_P1;PMS_P2;Temp;Humidity;BMP_temperature;BMP_pressure;BME280_temperature;BME280_humidity;BME280_pressure;Samples;Min_cycle;Max_cycle;Signal;HPM_P1;HPM_P2
2022/03/11 00:02:47;;;;;;;86.47;80.90;;;;;;;12.62;100.00;101010.72;1998542;71;33565;-75
2022/03/11 00:08:31;;;;;;;84.87;79.37;;;;;;;12.63;100.00;101003.19;2009528;71;33342;-74
2022/03/11 00:14:15;;;;;;;84.53;79.03;;;;;;;12.65;100.00;100989.25;2013051;70;32830;-76
2022/03/11 00:20:00;;;;;;;83.10;77.80;;;;;;;12.69;100.00;100982.52;1998363;71;32824;-75
2022/03/11 00:25:44;;;;;;;84.30;78.83;;;;;;;12.70;100.00;100978.61;2009538;71;32879;-72
2022/03/11 00:31:28;;;;;;;82.50;77.30;;;;;;;12.64;100.00;100975.59;1998666;71;33293;-75
2022/03/11 00:37:12;;;;;;;87.47;82.07;;;;;;;12.59;100.00;100963.11;2004007;71;33292;-74
2022/03/11 00:42:56;;;;;;;85.83;80.43;;;;;;;12.61;100.00;100953.34;2016744;71;32875;-77
2022/03/11 00:48:41;;;;;;;84.70;79.67;;;;;;;12.64;100.00;100947.73;2007612;70;32948;-76
2022/03/11 00:54:25;;;;;;;82.00;77.00;;;;;;;12.61;100.00;100937.19;2000489;71;33339;-76
2022/03/11 01:00:11;;;;;;;80.73;75.90;;;;;;;12.64;100.00;100927.66;2016800;71;33325;-76
2022/03/11 01:05:56;;;;;;;84.03;78.90;;;;;;;12.61;100.00;100917.12;2005683;71;32932;-73
2022/03/11 01:11:40;;;;;;;84.27;78.93;;;;;;;12.54;100.00;100913.00;2009520;71;33323;-78
2022/03/11 01:17:27;;;;;;;81.67;76.67;;;;;;;12.56;100.00;100910.20;2007634;71;32837;-76
2022/03/11 01:23:17;;;;;;;80.27;75.37;;;;;;;12.55;100.00;100901.57;1998524;71;32836;-76
2022/03/11 01:29:01;;;;;;;79.63;74.80;;;;;;;12.55;100.00;100907.70;2013106;71;32831;-72
2022/03/11 01:34:45;;;;;;;81.17;76.27;;;;;;;12.45;100.00;100888.34;2000411;71;33297;-75
2022/03/11 01:40:29;;;;;;;84.70;79.63;;;;;;;12.35;100.00;100885.11;2004111;71;33339;-73
2022/03/11 01:46:13;;;;;;;81.33;76.20;;;;;;;12.22;100.00;100871.89;2009989;71;33234;-73
2022/03/11 01:51:59;;;;;;;79.90;75.10;;;;;;;12.17;100.00;100849.10;1998382;71;32988;-77
2022/03/11 01:57:43;;;;;;;83.67;78.57;;;;;;;12.11;100.00;100850.27;2004002;71;33348;-72
2022/03/11 02:03:29;;;;;;;82.07;76.87;;;;;;;12.16;100.00;100843.81;2009184;71;32877;-77
2022/03/11 02:09:16;;;;;;;80.73;75.97;;;;;;;12.13;100.00;100838.85;2012042;71;32753;-76
2022/03/11 02:15:04;;;;;;;82.23;77.13;;;;;;;12.13;100.00;100843.03;2004079;70;32873;-76
2022/03/11 02:20:50;;;;;;;85.60;80.60;;;;;;;12.13;100.00;100836.90;2000997;71;33232;-77
2022/03/11 02:26:34;;;;;;;81.53;76.57;;;;;;;12.15;100.00;100815.73;2015258;71;32811;-76
2022/03/11 02:32:19;;;;;;;82.60;77.50;;;;;;;12.13;100.00;100813.23;2013611;71;33289;-77
2022/03/11 02:38:03;;;;;;;83.23;77.97;;;;;;;12.05;100.00;100805.53;1997265;71;32831;-74
2022/03/11 02:43:48;;;;;;;83.20;78.10;;;;;;;11.99;100.00;100792.78;2003765;71;32879;-76
2022/03/11 02:49:33;;;;;;;85.33;80.03;;;;;;;11.97;100.00;100788.09;2004369;71;32808;-76
2022/03/11 02:55:17;;;;;;;86.07;80.63;;;;;;;11.97;100.00;100769.17;2003973;71;33422;-73
2022/03/11 03:01:03;;;;;;;87.43;82.07;;;;;;;11.88;100.00;100763.42;2009432;71;32887;-76
2022/03/11 03:06:47;;;;;;;87.27;81.97;;;;;;;11.78;100.00;100755.18;1995304;71;32811;-75
2022/03/11 03:12:31;;;;;;;88.73;83.27;;;;;;;11.73;100.00;100748.27;2009370;71;33289;-74
2022/03/11 03:18:16;;;;;;;86.10;80.80;;;;;;;11.63;100.00;100733.91;2010107;71;32756;-72
2022/03/11 03:24:00;;;;;;;91.83;86.17;;;;;;;11.47;100.00;100726.82;1995131;71;33320;-76
2022/03/11 03:29:44;;;;;;;88.87;83.47;;;;;;;11.38;100.00;100708.55;2009660;71;32796;-75
2022/03/11 03:35:28;;;;;;;85.67;80.53;;;;;;;11.43;100.00;100704.34;2009331;71;32847;-75
2022/03/11 03:41:12;;;;;;;89.10;83.50;;;;;;;11.29;100.00;100690.88;2016617;71;32822;-77
2022/03/11 03:46:57;;;;;;;91.53;85.77;;;;;;;11.23;100.00;100685.65;2016763;71;32876;-75
2022/03/11 03:52:42;;;;;;;91.40;85.60;;;;;;;11.21;100.00;100685.13;2014864;71;32877;-76
2022/03/11 03:58:26;;;;;;;92.23;86.40;;;;;;;11.17;100.00;100684.03;1998609;71;33178;-76
2022/03/11 04:04:11;;;;;;;88.73;82.93;;;;;;;11.05;100.00;100680.27;1989164;71;32872;-73
2022/03/11 04:09:56;;;;;;;88.40;82.70;;;;;;;11.04;100.00;100679.19;2014782;71;32858;-74
2022/03/11 04:15:40;;;;;;;90.93;85.17;;;;;;;11.01;100.00;100686.14;2002580;70;32753;-72
2022/03/11 04:21:25;;;;;;;89.53;83.73;;;;;;;10.87;100.00;100683.20;2018382;71;32807;-77
2022/03/11 04:27:09;;;;;;;90.67;84.77;;;;;;;10.86;100.00;100684.34;1992054;71;33233;-75
2022/03/11 04:32:54;;;;;;;90.57;84.43;;;;;;;10.85;100.00;100680.45;2014932;71;32802;-73
2022/03/11 04:38:38;;;;;;;87.83;82.03;;;;;;;10.92;100.00;100665.66;2004147;71;33401;-73
2022/03/11 04:44:22;;;;;;;86.83;80.97;;;;;;;10.89;100.00;100664.30;2009457;71;32874;-74
2022/03/11 04:50:09;;;;;;;86.83;81.10;;;;;;;10.83;100.00;100661.84;2016644;71;32909;-74
2022/03/11 04:55:54;;;;;;;88.43;82.33;;;;;;;10.65;100.00;100662.02;1991699;71;33233;-73
2022/03/11 05:01:38;;;;;;;87.07;81.37;;;;;;;10.64;100.00;100660.36;1979100;71;39527;-75
2022/03/11 05:07:21;;;;;;;86.87;80.87;;;;;;;10.58;100.00;100652.34;2014988;71;33444;-75
2022/03/11 05:13:06;;;;;;;90.43;84.23;;;;;;;10.46;100.00;100638.83;1996892;71;30820;-76
2022/03/11 05:18:53;;;;;;;88.87;82.77;;;;;;;10.39;100.00;100646.67;2013227;71;32890;-76
2022/03/11 05:24:36;;;;;;;85.93;79.93;;;;;;;10.38;100.00;100618.62;2014832;71;32902;-76
2022/03/11 05:30:21;;;;;;;88.77;82.53;;;;;;;10.37;100.00;100613.63;2007879;71;33282;-72
2022/03/11 05:36:05;;;;;;;89.27;82.93;;;;;;;10.28;100.00;100608.42;2000883;71;32815;-74
2022/03/11 05:41:49;;;;;;;88.17;81.83;;;;;;;10.00;100.00;100607.77;2013306;71;31309;-73
2022/03/11 05:47:34;;;;;;;86.83;80.63;;;;;;;10.15;100.00;100610.98;2008371;71;32846;-76
2022/03/11 05:53:18;;;;;;;87.23;80.97;;;;;;;10.11;100.00;100594.09;2009631;71;32839;-76
2022/03/11 05:59:03;;;;;;;86.90;80.50;;;;;;;10.04;100.00;100593.59;2006942;71;33388;-78
2022/03/11 06:04:47;;;;;;;87.13;80.83;;;;;;;10.00;100.00;100581.41;2013343;71;32814;-76
2022/03/11 06:10:35;;;;;;;92.20;85.43;;;;;;;9.83;100.00;100561.00;2009139;71;33021;-76
2022/03/11 06:16:20;;;;;;;88.33;81.93;;;;;;;9.80;100.00;100567.09;1997019;71;32823;-76
2022/03/11 06:22:04;;;;;;;87.50;81.03;;;;;;;9.89;100.00;100552.06;1997217;70;32856;-74
2022/03/11 06:27:49;;;;;;;84.73;78.40;;;;;;;9.78;100.00;100554.09;1991605;71;32856;-75
2022/03/11 06:33:33;;;;;;;84.70;78.20;;;;;;;9.63;100.00;100547.81;2006276;71;32886;-74
2022/03/11 06:39:18;;;;;;;83.33;76.90;;;;;;;9.94;100.00;100547.31;2007706;71;32868;-73
2022/03/11 06:45:02;;;;;;;85.37;78.93;;;;;;;10.02;100.00;100543.92;2003816;71;32827;-77
2022/03/11 06:50:46;;;;;;;84.03;77.73;;;;;;;10.11;100.00;100530.26;2009440;71;32883;-77
2022/03/11 06:56:30;;;;;;;85.43;79.17;;;;;;;10.26;100.00;100525.18;2014749;71;32826;-72
2022/03/11 07:02:16;;;;;;;83.03;76.70;;;;;;;10.34;100.00;100525.94;2001101;71;33398;-76
2022/03/11 07:07:59;;;;;;;82.20;76.00;;;;;;;10.41;100.00;100509.76;2010133;71;32844;-77
2022/03/11 07:13:44;;;;;;;80.23;74.40;;;;;;;10.54;100.00;100502.13;2009663;71;32805;-74
2022/03/11 07:19:28;;;;;;;80.10;74.37;;;;;;;10.56;100.00;100494.91;2012861;71;32900;-76
2022/03/11 07:25:13;;;;;;;81.53;75.73;;;;;;;10.63;100.00;100489.27;2007908;71;33437;-76
2022/03/11 07:30:57;;;;;;;85.00;79.10;;;;;;;10.67;100.00;100493.10;2014901;71;33280;-75
2022/03/11 07:36:42;;;;;;;80.00;74.30;;;;;;;10.76;100.00;100502.45;2017220;71;32897;-76
2022/03/11 07:42:26;;;;;;;82.10;76.30;;;;;;;10.80;100.00;100488.23;2013084;71;32836;-71
2022/03/11 07:48:10;;;;;;;80.83;75.27;;;;;;;10.84;100.00;100465.68;2009505;71;33308;-75
2022/03/11 07:53:55;;;;;;;80.13;74.43;;;;;;;10.96;100.00;100459.13;2000808;71;33359;-72
2022/03/11 07:59:40;;;;;;;82.87;77.17;;;;;;;11.04;100.00;100467.95;2007967;71;32839;-74
2022/03/11 08:05:25;;;;;;;79.53;73.97;;;;;;;11.10;100.00;100475.92;1977818;72;32898;-72
2022/03/11 08:11:09;;;;;;;81.83;75.83;;;;;;;11.14;100.00;100459.47;1994753;71;32821;-74
2022/03/11 08:16:53;;;;;;;79.80;74.10;;;;;;;11.26;100.00;100447.34;2006177;71;32882;-79
2022/03/11 08:22:37;;;;;;;82.57;76.80;;;;;;;11.30;100.00;100449.22;2015288;71;32829;-77
2022/03/11 08:28:26;;;;;;;80.37;74.93;;;;;;;11.35;100.00;100444.98;2018556;71;32979;-74
2022/03/11 08:34:10;;;;;;;80.90;75.10;;;;;;;11.42;100.00;100429.33;2004155;71;32880;-76
2022/03/11 08:39:55;;;;;;;79.13;73.70;;;;;;;11.43;100.00;100436.52;1995114;71;32825;-75
2022/03/11 08:45:39;;;;;;;79.30;74.00;;;;;;;11.52;100.00;100424.98;2008237;71;32830;-71
2022/03/11 08:51:23;;;;;;;79.67;74.17;;;;;;;11.68;100.00;100410.28;2014890;71;32837;-73
2022/03/11 08:57:08;;;;;;;76.43;70.93;;;;;;;11.83;100.00;100400.31;2008019;71;33310;-79
2022/03/11 09:02:52;;;;;;;76.73;71.50;;;;;;;11.96;100.00;100389.78;2006173;70;32844;-76
2022/03/11 09:08:37;;;;;;;76.10;71.10;;;;;;;11.93;100.00;100389.57;2000800;71;33033;-74
2022/03/11 09:14:21;;;;;;;74.30;69.37;;;;;;;12.04;100.00;100372.94;2010095;71;32889;-75
2022/03/11 09:20:09;;;;;;;77.40;72.47;;;;;;;12.05;100.00;100367.63;2015036;71;32879;-73
2022/03/11 09:25:54;;;;;;;76.73;71.63;;;;;;;12.17;100.00;100355.42;1999421;71;32767;-78
2022/03/11 09:31:38;;;;;;;80.00;74.93;;;;;;;12.13;100.00;100360.80;1995203;71;33258;-72
2022/03/11 09:37:23;;;;;;;75.70;70.60;;;;;;;12.30;100.00;100369.37;2013609;71;32949;-76
2022/03/11 09:43:08;;;;;;;73.17;68.37;;;;;;;12.40;100.00;100349.41;2006257;71;32777;-78
2022/03/11 09:48:52;;;;;;;73.27;68.77;;;;;;;12.50;100.00;100327.73;2002137;71;33289;-73
2022/03/11 09:54:36;;;;;;;74.27;69.43;;;;;;;12.58;100.00;100335.35;2006029;71;32833;-74
2022/03/11 10:00:21;;;;;;;70.33;65.83;;;;;;;12.60;100.00;100324.73;2000483;71;33058;-75
2022/03/11 10:06:05;;;;;;;71.83;67.03;;;;;;;12.59;100.00;100311.11;2016391;71;32848;-76
2022/03/11 10:11:52;;;;;;;75.23;70.33;;;;;;;12.74;100.00;100294.90;2016671;71;33291;-73
2022/03/11 10:17:44;;;;;;;75.23;70.43;;;;;;;12.73;100.00;100285.45;2004542;71;32872;-76
2022/03/11 10:23:29;;;;;;;72.07;67.57;;;;;;;12.68;100.00;100304.50;1991671;71;33287;-73
2022/03/11 10:29:15;;;;;;;69.30;64.50;;;;;;;12.77;100.00;100302.63;2014957;71;32850;-76
2022/03/11 10:35:14;;;;;;;70.57;66.07;;;;;;;12.84;100.00;100299.95;2003965;71;32832;-74
2022/03/11 10:41:11;;;;;;;68.87;64.67;;;;;;;12.97;100.00;100273.44;2014995;71;32944;-74
2022/03/11 10:46:57;;;;;;;67.53;63.33;;;;;;;13.02;100.00;100280.30;2002576;71;33298;-74
2022/03/11 10:52:45;;;;;;;67.93;63.83;;;;;;;12.96;100.00;100287.15;1994986;71;32962;-78
2022/03/11 10:58:36;;;;;;;66.03;62.03;;;;;;;13.11;100.00;100274.25;2008104;71;32844;-73
2022/03/11 11:04:20;;;;;;;65.37;61.50;;;;;;;13.04;100.00;100258.52;1989164;71;33220;-73
2022/03/11 11:10:05;;;;;;;66.37;62.53;;;;;;;13.04;100.00;100250.15;2000220;71;32887;-74
2022/03/11 11:15:54;;;;;;;66.90;62.83;;;;;;;13.06;100.00;100229.73;2014918;71;33399;-74
2022/03/11 11:21:43;;;;;;;63.27;59.57;;;;;;;13.08;100.00;100216.87;2009742;71;32797;-72
2022/03/11 11:27:30;;;;;;;62.43;58.70;;;;;;;13.21;100.00;100214.05;2002596;70;33289;-74
2022/03/11 11:33:18;;;;;;;61.23;57.67;;;;;;;13.37;100.00;100199.13;2016501;71;32871;-74
2022/03/11 11:39:04;;;;;;;63.07;59.00;;;;;;;13.37;100.00;100194.95;2016534;71;32939;-72
2022/03/11 11:44:48;;;;;;;59.50;55.87;;;;;;;13.55;100.00;100188.89;2014883;70;32871;-74
2022/03/11 11:50:45;;;;;;;59.20;56.00;;;;;;;13.57;100.00;100186.02;2005980;71;32980;-73
2022/03/11 11:56:41;;;;;;;62.77;59.03;;;;;;;13.55;100.00;100184.70;1995005;71;32796;-75
2022/03/11 12:05:45;;;;;;;73.57;68.87;;;;;;;13.46;100.00;100168.48;2053559;69;32670;-74
2022/03/11 12:08:50;;;;;;;69.27;65.03;;;;;;;13.26;100.00;100187.17;1935116;73;26212;-73
2022/03/11 12:15:18;;;;;;;73.97;69.20;;;;;;;13.07;100.00;100186.77;2004403;71;33245;-73
2022/03/11 12:21:04;;;;;;;77.60;72.90;;;;;;;12.84;100.00;100179.55;2007535;71;32933;-72
2022/03/11 12:26:49;;;;;;;79.07;74.17;;;;;;;12.67;100.00;100176.63;2006306;71;33237;-74
2022/03/11 12:32:53;;;;;;;83.80;78.33;;;;;;;12.59;100.00;100169.02;2011922;71;32772;-75
2022/03/11 12:38:38;;;;;;;82.97;77.37;;;;;;;12.45;100.00;100167.67;2016666;71;33309;-74
2022/03/11 12:44:23;;;;;;;84.37;78.73;;;;;;;12.44;100.00;100159.09;2014986;71;32808;-74
2022/03/11 12:50:12;;;;;;;83.63;78.03;;;;;;;12.33;100.00;100156.27;2006590;71;33294;-74
2022/03/11 12:55:59;;;;;;;84.70;78.83;;;;;;;12.32;100.00;100144.30;2017280;70;33363;-79
2022/03/11 13:01:50;;;;;;;88.73;82.93;;;;;;;12.17;100.00;100133.52;2015042;71;32929;-76
2022/03/11 13:07:31;;;;;;;89.50;83.50;;;;;;;11.98;100.00;100141.77;2002530;71;33243;-74
2022/03/11 13:13:32;;;;;;;91.67;85.47;;;;;;;11.82;100.00;100138.48;2018491;71;32889;-77
2022/03/11 13:19:17;;;;;;;91.53;85.03;;;;;;;11.71;100.00;100131.45;2016402;71;32883;-75
2022/03/11 13:25:06;;;;;;;92.70;86.30;;;;;;;11.96;100.00;100113.42;2007604;71;32818;-73
2022/03/11 13:30:56;;;;;;;93.90;87.50;;;;;;;11.45;100.00;100118.64;1991436;71;33303;-72
2022/03/11 13:36:44;;;;;;;89.57;82.83;;;;;;;11.33;100.00;100106.65;2007551;71;32926;-74
2022/03/11 13:42:29;;;;;;;90.07;83.30;;;;;;;11.38;100.00;100105.73;2009785;71;32758;-73
2022/03/11 13:48:22;;;;;;;89.87;83.47;;;;;;;11.37;100.00;100097.95;1998652;71;32746;-73
2022/03/11 13:54:29;;;;;;;89.23;82.53;;;;;;;11.33;100.00;100097.48;2004166;71;32731;-75
2022/03/11 14:00:22;;;;;;;85.67;79.00;;;;;;;11.43;100.00;100095.87;1991315;71;32830;-74
2022/03/11 14:06:05;;;;;;;89.57;83.07;;;;;;;11.35;100.00;100087.69;2011216;71;32921;-75
2022/03/11 14:11:53;;;;;;;85.23;78.93;;;;;;;11.30;100.00;100084.17;1991606;71;33229;-76
2022/03/11 14:17:44;;;;;;;82.07;75.87;;;;;;;11.41;100.00;100087.03;1991828;71;32824;-77
2022/03/11 14:23:29;;;;;;;78.63;72.33;;;;;;;11.33;100.00;100091.36;1994790;71;33436;-74
2022/03/11 14:29:20;;;;;;;75.53;69.37;;;;;;;11.35;100.00;100089.64;1932511;74;33006;-73
2022/03/11 14:35:04;;;;;;;81.13;75.13;;;;;;;11.27;100.00;100086.20;2013217;71;32840;-75
2022/03/11 14:40:49;;;;;;;81.30;75.27;;;;;;;11.46;100.00;100091.66;2016641;71;32904;-74
2022/03/11 14:46:35;;;;;;;77.53;71.83;;;;;;;11.30;100.00;100090.56;1991691;71;33252;-75
2022/03/11 14:52:21;;;;;;;80.50;74.73;;;;;;;11.33;100.00;100093.31;2011997;71;30941;-77
2022/03/11 14:58:06;;;;;;;79.67;73.70;;;;;;;11.25;100.00;100099.00;2013301;71;33375;-76
2022/03/11 15:03:51;;;;;;;77.00;70.90;;;;;;;11.31;100.00;100099.17;1989222;71;33400;-80
2022/03/11 15:09:35;;;;;;;79.27;73.67;;;;;;;11.29;100.00;100102.84;1995057;71;32818;-76
2022/03/11 15:15:21;;;;;;;78.80;72.87;;;;;;;11.31;100.00;100106.13;2009673;71;33495;-76
2022/03/11 15:21:06;;;;;;;79.90;73.83;;;;;;;11.35;100.00;100100.20;2016696;71;33338;-77
2022/03/11 15:26:51;;;;;;;76.47;70.53;;;;;;;11.44;100.00;100101.69;2006231;71;32830;-76
2022/03/11 15:32:36;;;;;;;72.87;67.43;;;;;;;11.48;100.00;100094.94;2013431;71;33442;-81
2022/03/11 15:38:22;;;;;;;75.83;70.37;;;;;;;11.53;100.00;100099.84;2018908;71;32823;-74
2022/03/11 15:44:07;;;;;;;74.50;68.60;;;;;;;11.55;100.00;100103.12;2009908;71;32789;-77
2022/03/11 15:49:52;;;;;;;71.00;65.63;;;;;;;11.51;100.00;100111.83;2015084;71;32838;-78
2022/03/11 15:55:38;;;;;;;75.50;69.97;;;;;;;11.52;100.00;100100.97;2016648;71;32913;-75
2022/03/11 16:01:25;;;;;;;77.20;71.63;;;;;;;11.57;100.00;100106.99;2013196;71;32905;-74
2022/03/11 16:07:10;;;;;;;76.17;70.50;;;;;;;11.63;100.00;100101.03;2018439;71;32958;-74
2022/03/11 16:12:55;;;;;;;83.63;77.53;;;;;;;11.64;100.00;100112.39;1991631;71;32764;-74
2022/03/11 16:18:41;;;;;;;78.90;73.10;;;;;;;11.57;100.00;100127.85;2005757;71;32932;-74
2022/03/11 16:24:25;;;;;;;81.47;75.67;;;;;;;11.66;100.00;100124.05;2009124;71;32879;-71
2022/03/11 16:30:11;;;;;;;87.27;81.33;;;;;;;11.81;100.00;100130.69;2016908;71;33490;-74
2022/03/11 16:35:55;;;;;;;84.33;78.37;;;;;;;11.79;100.00;100130.20;2009776;71;32827;-75
2022/03/11 16:41:42;;;;;;;84.43;78.53;;;;;;;11.69;100.00;100135.94;2016680;71;33339;-76
2022/03/11 16:47:25;;;;;;;83.57;77.77;;;;;;;11.81;100.00;100157.12;2000512;70;32741;-75
2022/03/11 16:53:11;;;;;;;81.53;75.67;;;;;;;11.68;100.00;100168.25;2013027;71;32860;-73
2022/03/11 16:58:55;;;;;;;78.60;72.70;;;;;;;11.59;100.00;100186.23;2002501;71;32848;-75
2022/03/11 17:04:39;;;;;;;74.73;69.13;;;;;;;11.59;100.00;100201.53;2008221;71;33334;-76
2022/03/11 17:10:25;;;;;;;76.90;71.30;;;;;;;11.53;100.00;100206.09;2004280;71;32762;-74
2022/03/11 17:16:09;;;;;;;71.70;66.07;;;;;;;11.47;100.00;100220.65;2016945;71;32821;-74
2022/03/11 17:21:54;;;;;;;67.20;61.63;;;;;;;11.57;100.00;100226.59;2011740;71;33410;-76
2022/03/11 17:27:38;;;;;;;65.90;60.70;;;;;;;11.46;100.00;100234.31;2011133;71;32925;-76
2022/03/11 17:33:25;;;;;;;66.97;61.77;;;;;;;11.43;100.00;100248.81;2008113;71;33352;-72
2022/03/11 17:39:09;;;;;;;75.80;70.30;;;;;;;11.34;100.00;100253.41;2004559;71;32767;-76
2022/03/11 17:44:53;;;;;;;75.53;70.23;;;;;;;11.13;100.00;100263.23;2017045;71;33423;-74
2022/03/11 17:50:38;;;;;;;87.23;81.40;;;;;;;11.07;100.00;100258.91;2004692;71;33353;-77
2022/03/11 17:56:23;;;;;;;67.47;62.27;;;;;;;10.87;100.00;100267.81;2005574;71;32927;-74
2022/03/11 18:02:08;;;;;;;69.93;64.20;;;;;;;10.80;100.00;100286.82;2015014;71;33058;-73
2022/03/11 18:07:52;;;;;;;74.40;68.90;;;;;;;10.66;100.00;100292.02;2000000;71;32918;-78
2022/03/11 18:13:36;;;;;;;71.40;66.17;;;;;;;10.50;100.00;100300.58;2009266;71;33278;-70
2022/03/11 18:19:21;;;;;;;68.23;62.70;;;;;;;10.52;100.00;100299.45;2009417;71;33355;-71
2022/03/11 18:25:10;;;;;;;65.63;60.43;;;;;;;10.56;100.00;100305.51;1995386;71;32747;-78
2022/03/11 18:30:55;;;;;;;64.97;59.97;;;;;;;10.51;100.00;100308.34;1995172;71;32841;-71
2022/03/11 18:36:40;;;;;;;71.60;65.90;;;;;;;10.35;100.00;100317.45;1991407;71;32840;-70
2022/03/11 18:42:28;;;;;;;71.23;65.53;;;;;;;10.27;100.00;100324.22;1999252;71;33376;-78
2022/03/11 18:48:12;;;;;;;69.67;63.97;;;;;;;10.27;100.00;100331.16;1995016;71;32771;-78
2022/03/11 18:53:56;;;;;;;66.60;61.20;;;;;;;10.24;100.00;100328.39;1995146;71;32768;-81
2022/03/11 18:59:40;;;;;;;67.67;62.03;;;;;;;10.32;100.00;100333.84;1996849;71;32896;-77
2022/03/11 19:05:24;;;;;;;67.30;61.60;;;;;;;10.30;100.00;100334.72;1972393;72;33404;-80
2022/03/11 19:11:09;;;;;;;65.63;59.93;;;;;;;10.34;100.00;100337.16;1996814;71;32782;-69
2022/03/11 19:16:55;;;;;;;64.60;59.23;;;;;;;10.30;100.00;100336.94;2016618;71;30886;-72
2022/03/11 19:22:39;;;;;;;65.43;59.93;;;;;;;10.31;100.00;100339.95;2009237;71;32926;-72
2022/03/11 19:28:26;;;;;;;66.33;60.73;;;;;;;10.28;100.00;100347.49;2001011;71;33158;-78
2022/03/11 19:34:10;;;;;;;65.90;59.90;;;;;;;10.31;100.00;100351.05;2014795;70;32963;-74
2022/03/11 19:39:55;;;;;;;66.00;60.47;;;;;;;10.38;100.00;100343.77;2014957;70;32796;-67
2022/03/11 19:45:39;;;;;;;67.83;62.30;;;;;;;10.40;100.00;100327.63;2009675;71;32749;-67
2022/03/11 19:51:24;;;;;;;70.77;65.07;;;;;;;10.42;100.00;100337.89;1998278;71;32950;-66
2022/03/11 19:57:08;;;;;;;68.50;62.93;;;;;;;10.38;100.00;100345.16;2000727;71;31422;-67
2022/03/11 20:02:54;;;;;;;69.97;64.50;;;;;;;10.30;100.00;100362.48;2002000;71;33336;-67
2022/03/11 20:08:40;;;;;;;67.90;62.00;;;;;;;10.24;100.00;100367.25;2014803;70;32878;-67
2022/03/11 20:14:25;;;;;;;64.27;58.93;;;;;;;10.18;100.00;100364.84;2005385;71;32853;-68
2022/03/11 20:20:12;;;;;;;64.60;59.23;;;;;;;10.07;100.00;100365.47;2012997;71;32816;-73
2022/03/11 20:25:57;;;;;;;66.37;60.77;;;;;;;10.12;100.00;100377.07;2003832;71;32809;-75
2022/03/11 20:31:41;;;;;;;64.03;58.57;;;;;;;10.10;100.00;100371.80;2013086;71;33318;-75
2022/03/11 20:37:27;;;;;;;67.60;61.83;;;;;;;10.04;100.00;100366.89;2016841;71;33290;-68
2022/03/11 20:43:11;;;;;;;63.00;57.60;;;;;;;10.06;100.00;100374.34;2004431;71;32744;-76
2022/03/11 20:48:55;;;;;;;62.10;56.90;;;;;;;10.15;100.00;100369.02;2016638;71;32922;-77
2022/03/11 20:54:41;;;;;;;58.67;53.57;;;;;;;10.21;100.00;100364.24;2009933;71;33278;-76
2022/03/11 21:00:25;;;;;;;60.47;55.23;;;;;;;10.22;100.00;100370.89;2009254;71;33262;-67
2022/03/11 21:06:11;;;;;;;61.60;56.40;;;;;;;10.19;100.00;100374.23;1994794;71;33310;-66
2022/03/11 21:11:58;;;;;;;60.00;54.80;;;;;;;10.15;100.00;100380.64;2005727;71;32801;-67
2022/03/11 21:17:44;;;;;;;61.73;56.47;;;;;;;10.09;100.00;100387.38;2005575;71;32875;-71
2022/03/11 21:23:30;;;;;;;59.20;54.00;;;;;;;10.11;100.00;100392.89;2016823;71;32898;-66
2022/03/11 21:29:16;;;;;;;62.20;57.03;;;;;;;10.05;100.00;100396.27;1995229;71;32822;-76
2022/03/11 21:35:03;;;;;;;59.73;54.80;;;;;;;9.99;100.00;100396.06;2011008;71;33048;-72
2022/03/11 21:40:49;;;;;;;61.07;56.27;;;;;;;9.96;100.00;100409.15;2016632;71;33255;-73
2022/03/11 21:46:34;;;;;;;60.10;55.20;;;;;;;9.98;100.00;100413.83;1991556;71;32750;-74
2022/03/11 21:52:20;;;;;;;61.33;56.30;;;;;;;9.89;100.00;100425.28;2018370;71;32858;-66
2022/03/11 21:58:04;;;;;;;64.67;59.37;;;;;;;9.83;100.00;100415.92;1991562;71;32863;-76
2022/03/11 22:03:50;;;;;;;61.93;56.83;;;;;;;9.90;100.00;100421.95;1988107;71;33263;-66
2022/03/11 22:09:35;;;;;;;65.43;60.13;;;;;;;9.82;100.00;100422.03;2013899;71;32890;-73
2022/03/11 22:15:22;;;;;;;67.30;61.83;;;;;;;9.79;100.00;100423.17;2000770;71;33216;-66
2022/03/11 22:21:07;;;;;;;63.17;58.10;;;;;;;9.80;100.00;100428.41;1991294;71;32753;-74
2022/03/11 22:26:52;;;;;;;63.73;58.73;;;;;;;9.81;100.00;100427.30;2014833;71;33259;-76
2022/03/11 22:32:39;;;;;;;62.47;57.47;;;;;;;9.78;100.00;100420.95;2018351;71;32899;-67
2022/03/11 22:38:25;;;;;;;66.57;60.83;;;;;;;9.72;100.00;100437.91;2016539;71;32796;-74
2022/03/11 22:44:13;;;;;;;64.73;59.50;;;;;;;9.85;100.00;100434.47;2007854;71;32846;-75
2022/03/11 22:56:02;;;;;;;64.30;58.77;;;;;;;9.88;100.00;100426.39;2000260;71;33278;-75
2022/03/11 23:01:49;;;;;;;65.10;59.70;;;;;;;9.88;100.00;100426.98;2006010;71;32746;-74
2022/03/11 23:13:37;;;;;;;65.10;59.80;;;;;;;9.95;100.00;100432.45;2000059;71;32822;-76
2022/03/11 23:19:22;;;;;;;65.57;60.27;;;;;;;10.00;100.00;100435.19;2002362;71;32746;-74
2022/03/11 23:25:09;;;;;;;67.30;62.30;;;;;;;10.03;100.00;100437.92;2013128;71;32837;-67
2022/03/11 23:30:55;;;;;;;69.20;63.90;;;;;;;10.02;100.00;100441.81;2014720;71;33286;-76
2022/03/11 23:36:59;;;;;;;64.50;59.23;;;;;;;10.01;100.00;100450.69;2006167;71;32777;-67
2022/03/11 23:42:44;;;;;;;66.33;60.53;;;;;;;9.97;100.00;100449.63;2005522;71;32815;-68
2022/03/11 23:48:33;;;;;;;65.30;60.30;;;;;;;9.94;100.00;100447.44;2016831;71;33282;-74
2022/03/11 23:54:17;;;;;;;67.97;62.47;;;;;;;9.94;100.00;100449.38;2014844;71;32913;-68
